Time;durP1;ratioP1;P1;durP2;ratioP2;P2;SDS_P1;SDS_P2;PMS_P1;PMS_P2;Temp;Humidity;BMP_temperature;BMP_pressure;BME280_temperature;BME280_humidity;BME280_pressure;Samples;Min_cycle;Max_cycle;Signal;HPM_P1;HPM_P2
2022/02/24 00:01:49;;;;;;;0.95;0.45;;;;;;;-149.78;100.00;50424.50;4781417;29;20090;-72
2022/02/24 00:04:14;;;;;;;0.95;0.55;;;;;;;-149.78;100.00;50412.78;4779458;30;20040;-71
2022/02/24 00:06:40;;;;;;;1.35;0.40;;;;;;;-149.78;100.00;50432.31;4750218;30;20040;-71
2022/02/24 00:09:07;;;;;;;0.50;0.20;;;;;;;-149.78;100.00;50449.94;4780995;30;20031;-71
2022/02/24 00:11:35;;;;;;;0.28;0.28;;;;;;;-149.78;100.00;50426.47;4766531;30;20128;-71
2022/02/24 00:14:02;;;;;;;0.20;0.15;;;;;;;-149.78;100.00;50438.19;4747989;30;20035;-71
2022/02/24 00:16:28;;;;;;;0.30;0.30;;;;;;;-149.78;100.00;50465.56;4752590;30;20039;-71
2022/02/24 00:18:54;;;;;;;0.43;0.35;;;;;;;-149.78;100.00;50424.50;4779246;30;20055;-71
2022/02/24 00:21:21;;;;;;;0.20;0.20;;;;;;;-149.78;100.00;50440.16;4781298;30;20047;-71
2022/02/24 00:23:47;;;;;;;0.88;0.52;;;;;;;-149.78;100.00;50447.97;4779152;30;20062;-71
2022/02/24 00:26:13;;;;;;;0.80;0.30;;;;;;;-149.78;100.00;50426.47;4775234;30;20131;-72
2022/02/24 00:28:38;;;;;;;0.40;0.30;;;;;;;-149.78;100.00;50479.28;4774860;30;20501;-71
2022/02/24 00:31:04;;;;;;;1.67;0.22;;;;;;;-149.78;100.00;50430.38;4780854;30;20047;-71
2022/02/24 00:33:30;;;;;;;2.33;0.65;;;;;;;-149.78;100.00;50422.56;4778428;30;20035;-71
2022/02/24 00:35:55;;;;;;;1.85;1.00;;;;;;;-149.78;100.00;50440.16;4780178;30;20032;-72
2022/02/24 00:38:21;;;;;;;4.40;0.90;;;;;;;-149.78;100.00;50418.63;4765623;30;20047;-71
2022/02/24 00:40:47;;;;;;;1.58;0.90;;;;;;;-149.78;100.00;50412.78;4780603;30;20051;-71
2022/02/24 00:43:13;;;;;;;1.52;0.80;;;;;;;-149.78;100.00;50416.69;4779910;30;20027;-71
2022/02/24 00:45:39;;;;;;;1.92;0.77;;;;;;;-149.78;100.00;50416.69;4780282;30;20048;-71
2022/02/24 00:48:07;;;;;;;1.45;0.77;;;;;;;-149.78;100.00;50428.41;4781471;29;20036;-70
2022/02/24 00:50:33;;;;;;;6.25;1.00;;;;;;;-149.78;100.00;50428.41;4780536;30;20488;-71
2022/02/24 00:52:59;;;;;;;3.33;1.10;;;;;;;-149.78;100.00;50463.63;4763550;30;20058;-70
2022/02/24 00:55:25;;;;;;;2.92;1.20;;;;;;;-149.78;100.00;50444.06;4779044;30;20040;-71
2022/02/24 00:57:55;;;;;;;3.42;1.35;;;;;;;-149.78;100.00;50436.25;4781111;30;20122;-71
2022/02/24 01:00:23;;;;;;;6.43;1.42;;;;;;;-149.78;100.00;50436.25;4782432;30;20046;-70
2022/02/24 01:02:48;;;;;;;2.90;1.40;;;;;;;-149.78;100.00;50436.25;4767507;29;20040;-71
2022/02/24 01:05:14;;;;;;;4.38;1.50;;;;;;;-149.78;100.00;50424.50;4753626;30;20044;-71
2022/02/24 01:07:40;;;;;;;9.75;1.30;;;;;;;-149.78;100.00;50428.41;4770941;30;20031;-70
2022/02/24 01:10:07;;;;;;;5.55;2.17;;;;;;;-149.78;100.00;50412.78;4779164;30;20401;-71
2022/02/24 01:12:33;;;;;;;4.93;1.20;;;;;;;-149.78;100.00;50463.63;4780407;30;20051;-71
2022/02/24 01:15:03;;;;;;;9.65;1.85;;;;;;;-149.78;100.00;50416.69;4764468;30;20043;-71
2022/02/24 01:17:30;;;;;;;7.28;1.60;;;;;;;-149.78;100.00;50420.59;4781459;30;20059;-71
2022/02/24 01:19:56;;;;;;;5.05;1.48;;;;;;;-149.78;100.00;50453.84;4780034;29;20043;-71
2022/02/24 01:22:22;;;;;;;8.75;1.73;;;;;;;-149.78;100.00;50479.28;4781216;30;20055;-71
2022/02/24 01:24:48;;;;;;;2.70;1.25;;;;;;;-149.78;100.00;50432.31;4779630;29;20046;-71
2022/02/24 01:27:14;;;;;;;6.45;1.20;;;;;;;-149.78;100.00;50459.72;4778946;30;20435;-71
2022/02/24 01:29:40;;;;;;;5.70;1.90;;;;;;;-149.78;100.00;50420.59;4780514;30;20047;-71
2022/02/24 01:32:06;;;;;;;4.43;1.73;;;;;;;-149.78;100.00;50408.84;4779896;30;20047;-72
2022/02/24 01:34:32;;;;;;;8.05;2.78;;;;;;;-149.78;100.00;50440.16;4779159;30;20049;-71
2022/02/24 01:36:57;;;;;;;13.15;2.85;;;;;;;-149.78;100.00;50420.59;4780415;30;20392;-71
2022/02/24 01:39:23;;;;;;;8.32;2.58;;;;;;;-149.78;100.00;50440.16;4780529;30;20050;-71
2022/02/24 01:41:48;;;;;;;10.05;2.60;;;;;;;-149.78;100.00;50432.31;4779771;30;20145;-71
2022/02/24 01:44:15;;;;;;;8.95;2.00;;;;;;;-149.78;100.00;50404.94;4779925;30;20046;-71
2022/02/24 01:46:42;;;;;;;4.78;1.77;;;;;;;-149.78;100.00;50428.41;4780093;30;20458;-71
2022/02/24 01:49:08;;;;;;;4.28;1.60;;;;;;;-149.78;100.00;50436.25;4780357;29;20491;-71
2022/02/24 01:51:35;;;;;;;12.63;2.50;;;;;;;-149.78;100.00;50428.41;4765495;30;20051;-71
2022/02/24 01:54:01;;;;;;;2.42;1.40;;;;;;;-149.78;100.00;50424.50;4780696;29;20039;-71
2022/02/24 01:56:27;;;;;;;9.25;1.60;;;;;;;-149.78;100.00;50444.06;4763205;30;20105;-71
2022/02/24 01:58:54;;;;;;;9.52;2.00;;;;;;;-149.78;100.00;50420.59;4779869;30;20487;-71
2022/02/24 02:01:22;;;;;;;5.82;1.35;;;;;;;-149.78;100.00;50440.16;4780167;30;20071;-71
2022/02/24 02:03:49;;;;;;;7.18;1.67;;;;;;;-149.78;100.00;50432.31;4780741;29;20070;-71
2022/02/24 02:06:15;;;;;;;3.28;1.50;;;;;;;-149.78;100.00;50459.72;4766367;30;20051;-71
2022/02/24 02:08:42;;;;;;;7.80;1.65;;;;;;;-149.78;100.00;50451.88;4763526;30;20047;-71
2022/02/24 02:11:07;;;;;;;13.15;1.70;;;;;;;-149.78;100.00;50451.88;4779865;30;20038;-71
2022/02/24 02:13:34;;;;;;;10.60;1.58;;;;;;;-149.78;100.00;50440.16;4778284;30;20381;-71
2022/02/24 02:16:00;;;;;;;9.63;2.55;;;;;;;-149.78;100.00;50447.97;4780344;30;20494;-71
2022/02/24 02:18:27;;;;;;;11.13;1.60;;;;;;;-149.78;100.00;50440.16;4780255;30;20035;-71
2022/02/24 02:20:52;;;;;;;7.53;1.55;;;;;;;-149.78;100.00;50416.69;4778736;30;20041;-71
2022/02/24 02:23:18;;;;;;;10.30;1.77;;;;;;;-149.78;100.00;50459.72;4777622;30;20042;-71
2022/02/24 02:25:44;;;;;;;9.52;1.75;;;;;;;-149.78;100.00;50414.72;4779085;30;20464;-70
2022/02/24 02:28:14;;;;;;;7.45;2.40;;;;;;;-149.78;100.00;50444.06;4780193;30;20067;-71
2022/02/24 02:30:39;;;;;;;12.25;2.10;;;;;;;-149.78;100.00;50455.81;4780544;30;20034;-71
2022/02/24 02:33:05;;;;;;;12.77;2.15;;;;;;;-149.78;100.00;50426.47;4777708;30;20035;-71
2022/02/24 02:35:30;;;;;;;14.20;2.45;;;;;;;-149.78;100.00;50432.31;4779460;30;20583;-71
2022/02/24 02:37:57;;;;;;;6.00;2.30;;;;;;;-149.78;100.00;50440.16;4765821;30;20067;-71
2022/02/24 02:40:24;;;;;;;6.90;1.80;;;;;;;-149.78;100.00;50449.94;4784706;30;20047;-71
2022/02/24 02:42:50;;;;;;;4.50;2.13;;;;;;;-149.78;100.00;50430.38;4782376;30;20127;-71
2022/02/24 02:45:16;;;;;;;10.68;1.77;;;;;;;-149.78;100.00;50451.88;4761102;30;20558;-71
2022/02/24 02:47:42;;;;;;;11.00;1.60;;;;;;;-149.78;100.00;50432.31;4777049;30;20604;-71
2022/02/24 02:50:08;;;;;;;9.30;1.65;;;;;;;-149.78;100.00;50438.19;4766470;29;20059;-71
2022/02/24 02:52:34;;;;;;;6.50;2.00;;;;;;;-149.78;100.00;50440.16;4801213;24;20382;-72
2022/02/24 02:55:08;;;;;;;5.68;2.10;;;;;;;-149.78;100.00;50432.31;4796619;29;20419;-72
2022/02/24 03:00:18;;;;;;;9.35;2.45;;;;;;;-149.78;100.00;50432.31;4970347;24;20119;-73
2022/02/24 03:02:43;;;;;;;9.27;2.42;;;;;;;-149.78;100.00;50471.44;4799271;29;20041;-72
2022/02/24 03:05:10;;;;;;;9.48;3.95;;;;;;;-149.78;100.00;50459.72;4799494;29;20052;-73
2022/02/24 03:07:36;;;;;;;6.70;2.72;;;;;;;-149.78;100.00;50451.88;4799923;29;20083;-72
2022/02/24 03:10:05;;;;;;;8.90;2.72;;;;;;;-149.78;100.00;50453.84;4787006;29;20031;-72
2022/02/24 03:12:35;;;;;;;11.07;3.15;;;;;;;-149.78;100.00;50424.50;4797905;29;20054;-72
2022/02/24 03:15:09;;;;;;;12.30;4.13;;;;;;;-149.78;100.00;50432.31;4801131;29;20045;-72
2022/02/24 03:17:37;;;;;;;17.25;3.67;;;;;;;-149.78;100.00;50440.16;4798901;29;20039;-72
2022/02/24 03:20:04;;;;;;;7.65;3.35;;;;;;;-149.78;100.00;50434.28;4800402;29;20057;-72
2022/02/24 03:22:31;;;;;;;8.95;3.40;;;;;;;-149.78;100.00;50410.81;4800040;29;20048;-72
2022/02/24 03:24:56;;;;;;;5.30;2.90;;;;;;;-149.78;100.00;50430.38;4783840;29;20387;-72
2022/02/24 03:27:22;;;;;;;6.50;3.50;;;;;;;-149.78;100.00;50410.81;4784765;29;20125;-72
2022/02/24 03:29:48;;;;;;;6.05;3.20;;;;;;;-149.78;100.00;50444.06;4782940;29;20138;-71
2022/02/24 03:32:13;;;;;;;14.15;3.40;;;;;;;-149.78;100.00;50447.97;4799859;29;20783;-72
2022/02/24 03:34:40;;;;;;;3.70;2.60;;;;;;;-149.78;100.00;50453.84;4780874;29;20049;-72
2022/02/24 03:37:06;;;;;;;9.57;2.50;;;;;;;-149.78;100.00;50451.88;4782283;29;20039;-72
2022/02/24 03:39:33;;;;;;;10.20;2.88;;;;;;;-149.78;100.00;50420.59;4766963;29;20123;-72
2022/02/24 03:41:58;;;;;;;6.53;2.10;;;;;;;-149.78;100.00;50453.84;4767839;29;20070;-73
2022/02/24 03:44:24;;;;;;;6.25;2.28;;;;;;;-149.78;100.00;50463.63;4784249;29;20565;-72
2022/02/24 03:46:50;;;;;;;5.40;2.35;;;;;;;-149.78;100.00;50424.50;4800862;29;20527;-73
2022/02/24 03:49:16;;;;;;;6.65;1.95;;;;;;;-149.78;100.00;50479.28;4783343;29;20118;-72
2022/02/24 03:51:42;;;;;;;4.60;2.08;;;;;;;-149.78;100.00;50451.88;4797462;29;20423;-72
2022/02/24 03:54:08;;;;;;;3.80;1.80;;;;;;;-149.78;100.00;50447.97;4767923;29;20051;-72
2022/02/24 03:56:33;;;;;;;8.13;1.90;;;;;;;-149.78;100.00;50449.94;4799095;29;20088;-72
2022/02/24 03:58:59;;;;;;;4.63;2.20;;;;;;;-149.78;100.00;50447.97;4782655;29;20722;-72
2022/02/24 04:01:25;;;;;;;3.65;1.45;;;;;;;-149.78;100.00;50455.81;4768758;29;20103;-72
2022/02/24 04:03:50;;;;;;;6.57;1.70;;;;;;;-149.78;100.00;50397.13;4799188;29;20498;-73
2022/02/24 04:06:16;;;;;;;8.07;1.50;;;;;;;-149.78;100.00;50455.81;4798087;29;20484;-72
2022/02/24 04:08:43;;;;;;;4.82;1.30;;;;;;;-149.78;100.00;50498.81;4799649;29;20039;-73
2022/02/24 04:11:08;;;;;;;7.15;1.60;;;;;;;-149.78;100.00;50447.97;4799958;29;20107;-72
2022/02/24 04:13:34;;;;;;;4.32;1.30;;;;;;;-149.78;100.00;50408.84;4783682;29;20047;-73
2022/02/24 04:16:03;;;;;;;6.15;1.00;;;;;;;-149.78;100.00;50432.31;4782758;29;20118;-72
2022/02/24 04:18:29;;;;;;;3.83;1.05;;;;;;;-149.78;100.00;50428.41;4783763;29;20130;-72
2022/02/24 04:20:55;;;;;;;7.07;0.80;;;;;;;-149.78;100.00;50420.59;4798380;29;20549;-72
2022/02/24 04:23:20;;;;;;;4.75;1.10;;;;;;;-149.78;100.00;50408.84;4798213;29;20167;-72
2022/02/24 04:25:46;;;;;;;5.60;0.68;;;;;;;-149.78;100.00;50455.81;4787509;29;20514;-72
2022/02/24 04:28:11;;;;;;;4.78;1.23;;;;;;;-149.78;100.00;50440.16;4807900;29;20109;-73
2022/02/24 04:30:37;;;;;;;3.47;0.85;;;;;;;-149.78;100.00;50446.03;4791424;29;20551;-72
2022/02/24 04:33:03;;;;;;;5.95;0.77;;;;;;;-149.78;100.00;50412.78;4805223;29;20039;-72
2022/02/24 04:35:29;;;;;;;5.85;0.90;;;;;;;-149.78;100.00;50451.88;4798085;29;20552;-72
2022/02/24 04:37:55;;;;;;;2.78;0.73;;;;;;;-149.78;100.00;50412.78;4767797;29;20538;-72
2022/02/24 04:40:21;;;;;;;5.55;0.77;;;;;;;-149.78;100.00;50416.69;4799687;29;20031;-72
2022/02/24 04:42:46;;;;;;;2.20;0.77;;;;;;;-149.78;100.00;50477.31;4797799;29;20441;-72
2022/02/24 04:45:12;;;;;;;6.20;1.00;;;;;;;-149.78;100.00;50406.91;4792261;29;20043;-72
2022/02/24 04:47:39;;;;;;;5.30;1.00;;;;;;;-149.78;100.00;50410.81;4778014;29;20046;-72
2022/02/24 04:50:08;;;;;;;6.20;0.82;;;;;;;-149.78;100.00;50432.31;4797388;29;20035;-73
2022/02/24 04:52:35;;;;;;;4.40;0.95;;;;;;;-149.78;100.00;50408.84;4797994;29;20467;-73
2022/02/24 04:55:02;;;;;;;10.52;1.23;;;;;;;-149.78;100.00;50447.97;4799361;29;20513;-73
2022/02/24 04:57:28;;;;;;;4.45;0.75;;;;;;;-149.78;100.00;50436.25;4765939;29;21540;-72
2022/02/24 04:59:55;;;;;;;7.90;1.02;;;;;;;-149.78;100.00;50451.88;4797273;29;20059;-73
2022/02/24 05:02:22;;;;;;;6.28;0.80;;;;;;;-149.78;100.00;50473.41;4799208;29;20041;-73
2022/02/24 05:04:48;;;;;;;4.43;0.90;;;;;;;-149.78;100.00;50463.63;4766261;29;20570;-73
2022/02/24 05:07:13;;;;;;;5.22;0.98;;;;;;;-149.78;100.00;50463.63;4781982;29;20050;-72
2022/02/24 05:09:39;;;;;;;6.40;1.20;;;;;;;-149.78;100.00;50459.72;4782430;29;20103;-73
2022/02/24 05:12:06;;;;;;;4.15;1.00;;;;;;;-149.78;100.00;50487.09;4798107;29;20099;-72
2022/02/24 05:14:32;;;;;;;6.75;1.50;;;;;;;-149.78;100.00;50463.63;4781148;29;20077;-72
2022/02/24 05:16:58;;;;;;;4.50;1.10;;;;;;;-149.78;100.00;50447.97;4780685;29;20047;-73
2022/02/24 05:19:25;;;;;;;6.43;1.05;;;;;;;-149.78;100.00;50491.00;4782368;29;20107;-72
2022/02/24 05:21:50;;;;;;;11.38;0.93;;;;;;;-149.78;100.00;50412.78;4797639;29;20495;-72
2022/02/24 05:24:17;;;;;;;2.75;1.00;;;;;;;-149.78;100.00;50463.63;4797332;29;20486;-72
2022/02/24 05:26:43;;;;;;;8.43;1.05;;;;;;;-149.78;100.00;50461.66;4798402;29;20039;-72
2022/02/24 05:29:09;;;;;;;2.33;0.77;;;;;;;-149.78;100.00;50461.66;4798930;29;20038;-72
2022/02/24 05:31:35;;;;;;;5.90;0.98;;;;;;;-149.78;100.00;50471.44;4796302;29;20538;-73
2022/02/24 05:34:01;;;;;;;5.45;1.00;;;;;;;-149.78;100.00;50408.84;4782520;29;20051;-73
2022/02/24 05:36:26;;;;;;;4.28;1.23;;;;;;;-149.78;100.00;50414.72;4797592;29;20043;-73
2022/02/24 05:38:54;;;;;;;1.08;0.70;;;;;;;-149.78;100.00;50451.88;4781343;29;20130;-73
2022/02/24 05:41:21;;;;;;;6.57;1.20;;;;;;;-149.78;100.00;50430.38;4795119;29;20039;-73
2022/02/24 05:43:47;;;;;;;6.03;1.33;;;;;;;-149.78;100.00;50498.81;4781034;29;20039;-72
2022/02/24 05:46:13;;;;;;;5.07;1.10;;;;;;;-149.78;100.00;50424.50;4797646;29;20125;-72
2022/02/24 05:48:39;;;;;;;6.53;1.90;;;;;;;-149.78;100.00;50430.38;4796855;29;20134;-71
2022/02/24 05:51:05;;;;;;;4.68;1.15;;;;;;;-149.78;100.00;50451.88;4782276;29;20500;-72
2022/02/24 05:53:30;;;;;;;2.40;0.90;;;;;;;-149.78;100.00;50447.97;4798003;29;20039;-72
2022/02/24 05:55:56;;;;;;;2.88;0.80;;;;;;;-149.78;100.00;50451.88;4797149;29;20122;-73
2022/02/24 05:58:22;;;;;;;3.42;0.88;;;;;;;-149.78;100.00;50440.16;4781105;29;20038;-72
2022/02/24 06:00:48;;;;;;;12.35;1.98;;;;;;;-149.78;100.00;50469.50;4780059;29;20093;-73
2022/02/24 06:03:14;;;;;;;8.38;1.30;;;;;;;-149.78;100.00;50440.16;4797127;29;20058;-73
2022/02/24 06:05:40;;;;;;;8.55;1.02;;;;;;;-149.78;100.00;50491.00;4753208;29;20042;-73
2022/02/24 06:08:05;;;;;;;2.80;1.15;;;;;;;-149.78;100.00;50463.63;4780547;29;20099;-72
2022/02/24 06:10:31;;;;;;;5.90;0.82;;;;;;;-149.78;100.00;50426.47;4799079;29;20041;-72
2022/02/24 06:12:58;;;;;;;3.33;0.80;;;;;;;-149.78;100.00;50469.50;4797063;29;20046;-72
2022/02/24 06:15:24;;;;;;;3.15;0.90;;;;;;;-149.78;100.00;50471.44;4798610;29;20039;-72
2022/02/24 06:17:50;;;;;;;5.97;1.00;;;;;;;-149.78;100.00;50492.97;4782181;29;20074;-72
2022/02/24 06:20:16;;;;;;;4.78;0.77;;;;;;;-149.78;100.00;50440.16;4798617;29;20126;-72
2022/02/24 06:22:42;;;;;;;4.10;1.05;;;;;;;-149.78;100.00;50469.50;4795927;29;20134;-72
2022/02/24 06:25:08;;;;;;;6.13;1.17;;;;;;;-149.78;100.00;50447.97;4797086;29;20046;-72
2022/02/24 06:27:34;;;;;;;5.60;0.77;;;;;;;-149.78;100.00;50475.34;4796585;29;20043;-72
2022/02/24 06:30:01;;;;;;;6.32;1.00;;;;;;;-149.78;100.00;50434.28;4780379;29;20050;-73
2022/02/24 06:32:27;;;;;;;4.68;0.90;;;;;;;-149.78;100.00;50498.81;4797110;29;20043;-72
2022/02/24 06:34:54;;;;;;;5.63;0.88;;;;;;;-149.78;100.00;50483.19;4781215;29;20053;-73
2022/02/24 06:37:20;;;;;;;6.88;0.93;;;;;;;-149.78;100.00;50465.56;4767584;29;20054;-72
2022/02/24 06:39:46;;;;;;;2.58;0.73;;;;;;;-149.78;100.00;50455.81;4797774;29;20042;-72
2022/02/24 06:42:12;;;;;;;3.13;0.90;;;;;;;-149.78;100.00;50447.97;4797776;29;20036;-73
2022/02/24 06:44:38;;;;;;;4.95;0.93;;;;;;;-149.78;100.00;50483.19;4797988;29;20030;-72
2022/02/24 06:47:04;;;;;;;6.00;0.88;;;;;;;-149.78;100.00;50447.97;4797587;29;20061;-73
2022/02/24 06:49:30;;;;;;;5.70;0.98;;;;;;;-149.78;100.00;50444.06;4781597;29;20035;-73
2022/02/24 06:51:57;;;;;;;5.28;1.55;;;;;;;-149.78;100.00;50491.00;4797551;29;20073;-72
2022/02/24 06:54:24;;;;;;;5.00;1.00;;;;;;;-149.78;100.00;50455.81;4797918;29;20027;-72
2022/02/24 06:56:49;;;;;;;7.03;0.88;;;;;;;-149.78;100.00;50451.88;4797885;29;20030;-73
2022/02/24 06:59:16;;;;;;;4.07;1.08;;;;;;;-149.78;100.00;50430.38;4795080;29;20119;-72
2022/02/24 07:01:42;;;;;;;2.90;0.90;;;;;;;-149.78;100.00;50465.56;4793024;29;20027;-72
2022/02/24 07:04:07;;;;;;;3.70;1.08;;;;;;;-149.78;100.00;50473.41;4793226;29;20042;-72
2022/02/24 07:06:33;;;;;;;8.30;0.90;;;;;;;-149.78;100.00;50455.81;4793420;29;20071;-72
2022/02/24 07:08:59;;;;;;;6.45;1.13;;;;;;;-149.78;100.00;50469.50;4778235;29;20043;-72
2022/02/24 07:11:24;;;;;;;6.93;1.42;;;;;;;-149.78;100.00;50475.34;4779844;29;20178;-72
2022/02/24 07:13:50;;;;;;;3.22;0.95;;;;;;;-149.78;100.00;50463.63;4776925;29;20047;-72
2022/02/24 07:16:16;;;;;;;4.25;0.98;;;;;;;-149.78;100.00;50457.75;4795659;29;20083;-71
2022/02/24 07:18:41;;;;;;;5.00;1.00;;;;;;;-149.78;100.00;50467.53;4795243;29;20103;-72
2022/02/24 07:21:07;;;;;;;9.48;1.70;;;;;;;-149.78;100.00;50475.34;4780439;29;20061;-70
2022/02/24 07:23:33;;;;;;;6.40;2.28;;;;;;;-149.78;100.00;50451.88;4781810;29;20053;-70
2022/02/24 07:26:00;;;;;;;5.68;1.85;;;;;;;-149.78;100.00;50471.44;4799505;29;20078;-71
2022/02/24 07:28:26;;;;;;;6.85;1.80;;;;;;;-149.78;100.00;50444.06;4800078;29;20049;-71
2022/02/24 07:30:51;;;;;;;7.32;2.78;;;;;;;-149.78;100.00;50457.75;4775694;29;20379;-72
2022/02/24 07:33:17;;;;;;;7.40;3.85;;;;;;;-149.78;100.00;50475.34;4799338;29;20103;-70
2022/02/24 07:35:43;;;;;;;5.80;2.83;;;;;;;-149.78;100.00;50451.88;4798046;29;20054;-68
2022/02/24 07:38:09;;;;;;;4.85;2.45;;;;;;;-149.78;100.00;50455.81;4799249;29;20121;-72
2022/02/24 07:40:34;;;;;;;4.70;2.25;;;;;;;-149.78;100.00;50479.28;4799003;29;20493;-71
2022/02/24 07:43:00;;;;;;;6.75;2.22;;;;;;;-149.78;100.00;50491.00;4784593;29;20515;-71
2022/02/24 07:45:26;;;;;;;4.40;1.88;;;;;;;-149.78;100.00;50463.63;4783593;29;20424;-72
2022/02/24 07:47:52;;;;;;;4.70;1.90;;;;;;;-149.78;100.00;50465.56;4798241;29;20038;-70
2022/02/24 07:50:18;;;;;;;6.28;2.65;;;;;;;-149.78;100.00;50475.34;4800676;29;20054;-69
2022/02/24 07:52:45;;;;;;;5.43;2.13;;;;;;;-149.78;100.00;50430.38;4782051;29;20070;-70
2022/02/24 07:55:13;;;;;;;6.00;2.30;;;;;;;-149.78;100.00;50496.88;4800296;29;20039;-70
2022/02/24 07:57:40;;;;;;;4.07;2.28;;;;;;;-149.78;100.00;50471.44;4794785;29;20179;-70
2022/02/24 08:00:08;;;;;;;4.20;2.03;;;;;;;-149.78;100.00;50491.00;4782864;29;20047;-71
2022/02/24 08:02:34;;;;;;;4.45;2.00;;;;;;;-149.78;100.00;50475.34;4785363;29;20100;-70
2022/02/24 08:05:00;;;;;;;5.00;2.00;;;;;;;-149.78;100.00;50471.44;4794169;29;20422;-72
2022/02/24 08:07:26;;;;;;;4.72;1.90;;;;;;;-149.78;100.00;50483.19;4793167;29;20026;-72
2022/02/24 08:09:52;;;;;;;2.95;1.70;;;;;;;-149.78;100.00;50487.09;4781193;29;20366;-73
2022/02/24 08:15:02;;;;;;;4.07;1.67;;;;;;;-149.78;100.00;50471.44;4771244;30;20036;-72
2022/02/24 08:17:28;;;;;;;5.47;1.80;;;;;;;-149.78;100.00;50494.91;4778870;30;20112;-71
2022/02/24 08:19:54;;;;;;;3.95;1.40;;;;;;;-149.78;100.00;50473.41;4780410;29;20107;-71
2022/02/24 08:22:19;;;;;;;4.05;1.40;;;;;;;-149.78;100.00;50496.88;4779087;30;20042;-72
2022/02/24 08:24:45;;;;;;;3.35;1.70;;;;;;;-149.78;100.00;50475.34;4785082;30;20465;-72
2022/02/24 08:27:13;;;;;;;3.50;1.48;;;;;;;-149.78;100.00;50440.16;4781411;30;20040;-73
2022/02/24 08:29:39;;;;;;;4.55;1.45;;;;;;;-149.78;100.00;50487.09;4784579;30;20039;-73
2022/02/24 08:32:05;;;;;;;1.90;1.30;;;;;;;-149.78;100.00;50451.88;4770334;30;20467;-72
2022/02/24 08:34:30;;;;;;;3.88;1.23;;;;;;;-149.78;100.00;50463.63;4776810;29;20031;-72
2022/02/24 08:36:56;;;;;;;5.70;1.73;;;;;;;-149.78;100.00;50500.78;4781164;30;20050;-72
2022/02/24 08:39:23;;;;;;;4.55;1.10;;;;;;;-149.78;100.00;50483.19;4788365;30;20051;-72
2022/02/24 08:41:49;;;;;;;3.78;1.05;;;;;;;-149.78;100.00;50510.56;4788116;30;20400;-72
2022/02/24 08:44:16;;;;;;;2.15;1.40;;;;;;;-149.78;100.00;50483.19;4788598;30;20043;-73
2022/02/24 08:46:42;;;;;;;3.00;0.95;;;;;;;-149.78;100.00;50485.13;4772279;30;20472;-73
2022/02/24 08:49:08;;;;;;;6.30;1.30;;;;;;;-149.78;100.00;50471.44;4789444;30;20399;-73
2022/02/24 08:51:34;;;;;;;4.40;1.17;;;;;;;-149.78;100.00;50447.97;4778261;30;20036;-73
2022/02/24 08:53:59;;;;;;;6.70;1.35;;;;;;;-149.78;100.00;50455.81;4771245;30;20135;-73
2022/02/24 08:56:25;;;;;;;2.53;1.10;;;;;;;-149.78;100.00;50463.63;4769817;29;20047;-73
2022/02/24 08:58:51;;;;;;;6.35;0.90;;;;;;;-149.78;100.00;50447.97;4780159;29;20035;-73
2022/02/24 09:01:17;;;;;;;4.97;1.60;;;;;;;-149.78;100.00;50459.72;4784893;30;20185;-72
2022/02/24 09:03:42;;;;;;;6.78;1.45;;;;;;;-149.78;100.00;50459.72;4789296;30;20047;-72
2022/02/24 09:06:11;;;;;;;17.75;2.03;;;;;;;-149.78;100.00;50451.88;4772913;30;20043;-72
2022/02/24 09:08:37;;;;;;;4.28;1.00;;;;;;;-149.78;100.00;50432.31;4773298;30;20050;-72
2022/02/24 09:11:03;;;;;;;4.07;0.80;;;;;;;-149.78;100.00;50463.63;4772846;30;20047;-72
2022/02/24 09:13:29;;;;;;;2.38;0.95;;;;;;;-149.78;100.00;50428.41;4788023;30;20054;-72
2022/02/24 09:15:55;;;;;;;6.78;1.17;;;;;;;-149.78;100.00;50428.41;4773000;30;20059;-72
2022/02/24 09:18:20;;;;;;;7.72;1.23;;;;;;;-149.78;100.00;50424.50;4789098;30;20039;-72
2022/02/24 09:20:46;;;;;;;1.48;0.80;;;;;;;-149.78;100.00;50401.03;4788813;30;20039;-72
2022/02/24 09:23:12;;;;;;;3.97;1.05;;;;;;;-149.78;100.00;50389.31;4788898;30;20046;-72
2022/02/24 09:25:38;;;;;;;6.03;1.38;;;;;;;-149.78;100.00;50424.50;4756936;30;20059;-72
2022/02/24 09:28:04;;;;;;;2.90;0.90;;;;;;;-149.78;100.00;50391.25;4771777;30;20047;-72
2022/02/24 09:30:29;;;;;;;5.82;1.00;;;;;;;-149.78;100.00;50367.78;4771014;30;20093;-73
2022/02/24 09:32:56;;;;;;;5.90;1.10;;;;;;;-149.78;100.00;50342.38;4770789;30;20040;-73
2022/02/24 09:35:22;;;;;;;1.83;1.10;;;;;;;-149.78;100.00;50338.44;4740026;30;20097;-74
2022/02/24 09:37:48;;;;;;;2.60;1.05;;;;;;;-149.78;100.00;50348.22;4770707;30;20038;-74
2022/02/24 09:40:16;;;;;;;2.10;0.93;;;;;;;-149.78;100.00;50291.50;4770880;30;20466;-74
2022/02/24 09:42:42;;;;;;;2.72;0.80;;;;;;;-149.78;92.94;50289.56;4763857;30;20066;-74
2022/02/24 09:45:09;;;;;;;4.15;1.17;;;;;;;-149.78;75.01;50236.75;4780649;30;20063;-74
2022/02/24 09:47:39;;;;;;;3.83;1.00;;;;;;;-149.78;66.35;50248.50;4783986;30;20051;-74
2022/02/24 09:50:06;;;;;;;5.60;1.20;;;;;;;-149.78;61.36;50207.44;4784860;30;20043;-74
2022/02/24 09:52:31;;;;;;;2.80;0.80;;;;;;;-149.78;57.24;50264.13;4771522;30;20046;-71
2022/02/24 09:54:57;;;;;;;1.55;0.88;;;;;;;-149.78;56.66;50213.28;4783100;30;20046;-72
2022/02/24 09:57:23;;;;;;;4.28;0.90;;;;;;;-149.78;54.49;50201.56;4786996;30;20039;-72
2022/02/24 09:59:48;;;;;;;3.90;0.90;;;;;;;-149.78;54.57;50228.94;4788103;29;20069;-73
2022/02/24 10:02:15;;;;;;;4.47;0.77;;;;;;;-149.78;53.37;50236.75;4769183;30;20050;-73
2022/02/24 10:05:10;;;;;;;3.80;0.88;;;;;;;-149.78;50.18;50205.47;4788421;30;20050;-73
2022/02/24 10:07:40;;;;;;;2.53;0.93;;;;;;;-149.78;49.95;50236.75;4788300;30;20092;-74
2022/02/24 10:10:21;;;;;;;3.70;1.00;;;;;;;-149.78;52.72;50215.25;4787945;30;20044;-73
2022/02/24 10:13:13;;;;;;;1.85;0.75;;;;;;;-149.78;52.57;50228.94;4788081;30;20073;-73
2022/02/24 10:15:44;;;;;;;2.72;0.80;;;;;;;-149.78;56.03;50248.50;4772325;30;20051;-73
2022/02/24 10:18:18;;;;;;;1.95;0.90;;;;;;;-149.78;51.57;50252.41;4772028;30;20042;-73
2022/02/24 10:20:47;;;;;;;3.15;0.98;;;;;;;-149.78;51.78;50225.03;4788112;30;20484;-72
2022/02/24 10:23:14;;;;;;;2.85;1.00;;;;;;;-149.78;51.58;50242.63;4788056;30;20492;-72
2022/02/24 10:25:44;;;;;;;1.55;0.80;;;;;;;-149.78;49.93;50217.19;4788003;30;20537;-73
2022/02/24 10:28:35;;;;;;;5.53;1.10;;;;;;;-149.78;50.87;50260.22;4787741;30;20047;-72
2022/02/24 10:31:07;;;;;;;2.42;0.75;;;;;;;-149.78;51.14;50264.13;4787816;30;20081;-72
2022/02/24 10:33:33;;;;;;;2.95;1.42;;;;;;;-149.78;55.00;50252.41;4787717;30;20123;-74
2022/02/24 10:36:33;;;;;;;4.50;1.00;;;;;;;-149.78;55.83;50307.16;4787656;30;20047;-74
2022/02/24 10:39:21;;;;;;;3.28;1.23;;;;;;;-149.78;57.82;50307.16;4786844;30;20100;-74
2022/02/24 10:41:49;;;;;;;4.32;1.38;;;;;;;-149.78;60.92;50359.97;4779732;30;20058;-73
2022/02/24 10:44:17;;;;;;;5.85;2.00;;;;;;;-149.78;65.21;50354.09;4771754;30;20700;-74
2022/02/24 10:46:49;;;;;;;4.70;1.88;;;;;;;-149.78;71.05;50330.63;4787398;30;20058;-74
2022/02/24 10:49:29;;;;;;;12.50;2.20;;;;;;;-149.78;79.66;50406.91;4768857;30;21775;-73
2022/02/24 10:52:14;;;;;;;7.90;2.45;;;;;;;-149.78;98.98;50373.66;4769256;30;20035;-74
2022/02/24 10:54:41;;;;;;;4.32;2.05;;;;;;;-149.78;100.00;50395.16;4777068;30;20104;-73
2022/02/24 10:57:24;;;;;;;4.07;2.35;;;;;;;-149.78;100.00;50432.31;4777095;29;20027;-73
2022/02/24 10:59:50;;;;;;;;;;;;;;;-149.78;100.00;50416.69;4773752;30;20064;-74
2022/02/24 11:02:15;;;;;;;2.85;1.70;;;;;;;-149.78;100.00;50420.59;4773540;30;20275;-74
2022/02/24 11:04:42;;;;;;;4.80;1.63;;;;;;;-149.78;100.00;50440.16;4773817;30;20431;-74
2022/02/24 11:07:09;;;;;;;3.28;1.30;;;;;;;-149.78;100.00;50397.13;4772206;30;20479;-74
2022/02/24 11:09:37;;;;;;;3.15;1.40;;;;;;;-149.78;100.00;50389.31;4793115;29;20131;-74
2022/02/24 11:12:05;;;;;;;2.50;1.25;;;;;;;-149.78;100.00;50363.88;4778082;29;20046;-75
2022/02/24 11:14:33;;;;;;;5.70;1.00;;;;;;;-149.78;96.81;50373.66;4809049;29;20030;-75